Time;durP1;ratioP1;P1;durP2;ratioP2;P2;SDS_P1;SDS_P2;PMS_P1;PMS_P2;Temp;Humidity;BMP_temperature;BMP_pressure;BME280_temperature;BME280_humidity;BME280_pressure;Samples;Min_cycle;Max_cycle;Signal;HPM_P1;HPM_P2
2021/09/05 00:00:00;;;;;;;59.33;36.92;;;19.50;99.90;;;;;;5025533;28;20162;-81
2021/09/05 00:02:25;;;;;;;60.53;35.72;;;19.30;99.90;;;;;;5024371;28;20734;-81
2021/09/05 00:04:51;;;;;;;51.72;34.67;;;19.10;99.90;;;;;;5024128;28;20190;-80
2021/09/05 00:07:17;;;;;;;56.83;35.33;;;18.90;99.90;;;;;;5025308;28;20201;-81
2021/09/05 00:09:43;;;;;;;63.17;34.85;;;18.80;99.90;;;;;;5024069;28;20170;-81
2021/09/05 00:12:09;;;;;;;61.13;35.45;;;18.70;99.90;;;;;;5024251;28;20192;-80
2021/09/05 00:14:35;;;;;;;56.90;36.20;;;18.70;99.90;;;;;;5024058;28;20155;-81
2021/09/05 00:17:01;;;;;;;55.08;35.60;;;18.60;99.90;;;;;;5025391;28;20175;-81
2021/09/05 00:19:27;;;;;;;52.25;35.33;;;18.60;99.90;;;;;;5025260;28;20193;-81
2021/09/05 00:21:53;;;;;;;64.28;36.58;;;18.50;99.90;;;;;;5023612;28;20176;-81
2021/09/05 00:24:19;;;;;;;62.58;38.92;;;18.50;99.90;;;;;;5024084;28;20209;-81
2021/09/05 00:26:47;;;;;;;64.03;38.75;;;18.40;99.90;;;;;;5025287;28;20174;-81
2021/09/05 00:29:16;;;;;;;71.47;41.22;;;18.40;99.90;;;;;;5025312;28;20189;-81
2021/09/05 00:31:42;;;;;;;69.75;40.45;;;18.50;99.90;;;;;;5025033;28;20174;-81
2021/09/05 00:34:08;;;;;;;68.53;41.13;;;18.60;99.90;;;;;;5023915;28;20170;-81
2021/09/05 00:36:34;;;;;;;63.45;41.00;;;18.50;99.90;;;;;;5024844;28;20198;-81
2021/09/05 00:38:59;;;;;;;80.72;43.53;;;18.50;99.90;;;;;;5025059;28;20170;-81
2021/09/05 00:41:25;;;;;;;75.53;43.00;;;18.50;99.90;;;;;;5023943;28;20280;-80
2021/09/05 00:43:54;;;;;;;74.47;42.85;;;18.40;99.90;;;;;;5025384;28;20174;-81
2021/09/05 00:46:19;;;;;;;78.03;44.45;;;18.40;99.90;;;;;;5024728;28;20221;-80
2021/09/05 00:48:45;;;;;;;79.60;44.47;;;18.60;99.90;;;;;;5025067;28;20194;-81
2021/09/05 00:51:10;;;;;;;77.93;44.85;;;18.40;99.90;;;;;;5023359;28;20186;-81
2021/09/05 00:53:36;;;;;;;72.63;41.47;;;18.40;99.90;;;;;;5023785;28;20154;-81
2021/09/05 00:56:02;;;;;;;75.60;42.65;;;18.30;99.90;;;;;;5024823;28;20193;-80
2021/09/05 00:58:30;;;;;;;77.13;43.28;;;18.20;99.90;;;;;;5023622;28;20177;-80
2021/09/05 01:00:56;;;;;;;73.15;42.35;;;18.20;99.90;;;;;;5023360;28;20177;-80
2021/09/05 01:03:21;;;;;;;77.65;42.58;;;18.20;99.90;;;;;;5025173;28;20182;-81
2021/09/05 01:05:47;;;;;;;77.68;43.90;;;18.20;99.90;;;;;;5023489;28;20297;-80
2021/09/05 01:08:12;;;;;;;71.25;42.22;;;18.20;99.90;;;;;;5023442;28;20197;-80
2021/09/05 01:10:39;;;;;;;74.53;42.58;;;18.10;99.90;;;;;;5023486;28;20169;-80
2021/09/05 01:13:04;;;;;;;74.88;43.78;;;18.10;99.90;;;;;;5025013;28;20653;-81
2021/09/05 01:15:30;;;;;;;76.03;43.83;;;18.10;99.90;;;;;;5023269;28;20190;-81
2021/09/05 01:17:56;;;;;;;74.05;43.13;;;18.20;99.90;;;;;;5024814;28;20166;-81
2021/09/05 01:20:21;;;;;;;74.38;43.38;;;18.10;99.90;;;;;;5024486;28;20174;-81
2021/09/05 01:22:47;;;;;;;78.82;43.88;;;18.10;99.90;;;;;;5024235;28;20170;-81
2021/09/05 01:25:13;;;;;;;75.95;42.55;;;18.10;99.90;;;;;;5024913;28;20554;-81
2021/09/05 01:27:38;;;;;;;78.13;44.78;;;18.10;99.90;;;;;;5024492;28;20217;-81
2021/09/05 01:30:05;;;;;;;75.18;43.72;;;18.10;99.90;;;;;;5023593;28;20170;-80
2021/09/05 01:32:30;;;;;;;77.18;44.03;;;18.10;99.90;;;;;;5023562;28;20190;-81
2021/09/05 01:34:57;;;;;;;78.28;43.58;;;18.20;99.90;;;;;;5024573;28;20166;-80
2021/09/05 01:37:22;;;;;;;80.05;44.35;;;18.10;99.90;;;;;;5023124;28;20244;-81
2021/09/05 01:39:48;;;;;;;79.13;42.17;;;18.20;99.90;;;;;;5026365;28;20166;-80
2021/09/05 01:42:14;;;;;;;72.85;42.85;;;18.20;99.90;;;;;;5024674;28;20162;-81
2021/09/05 01:44:39;;;;;;;80.07;44.22;;;18.20;99.90;;;;;;5024267;28;20170;-81
2021/09/05 01:47:05;;;;;;;70.38;42.40;;;18.10;99.90;;;;;;5024553;28;20462;-81
2021/09/05 01:49:30;;;;;;;69.35;41.25;;;18.00;99.90;;;;;;5026142;28;20189;-81
2021/09/05 01:51:56;;;;;;;73.22;42.88;;;17.90;99.90;;;;;;5022671;28;20534;-81
2021/09/05 01:54:22;;;;;;;79.18;43.88;;;17.90;99.90;;;;;;5024468;28;20192;-81
2021/09/05 01:56:47;;;;;;;83.40;43.63;;;18.00;99.90;;;;;;5024339;28;20169;-81
2021/09/05 01:59:13;;;;;;;76.32;43.50;;;18.00;99.90;;;;;;5023365;28;20242;-81
2021/09/05 02:01:38;;;;;;;73.82;43.67;;;17.90;99.90;;;;;;5024252;28;20161;-80
2021/09/05 02:04:05;;;;;;;79.13;44.00;;;18.00;99.90;;;;;;5026472;28;20234;-80
2021/09/05 02:06:31;;;;;;;77.25;43.78;;;18.00;99.90;;;;;;5026340;28;20171;-80
2021/09/05 02:08:57;;;;;;;79.45;44.67;;;18.00;99.90;;;;;;5026596;28;20201;-80
2021/09/05 02:11:23;;;;;;;67.10;41.45;;;18.10;99.90;;;;;;5026299;28;20166;-80
2021/09/05 02:13:49;;;;;;;74.82;42.00;;;18.00;99.90;;;;;;5026712;28;20188;-82
2021/09/05 02:16:15;;;;;;;66.68;39.90;;;17.80;99.90;;;;;;5027389;28;20170;-80
2021/09/05 02:18:41;;;;;;;70.63;40.63;;;17.70;99.90;;;;;;5027810;28;20169;-80
2021/09/05 02:21:07;;;;;;;63.60;38.40;;;17.60;99.90;;;;;;5025972;28;20220;-79
2021/09/05 02:23:32;;;;;;;69.20;38.78;;;17.60;99.90;;;;;;5027441;28;20221;-80
2021/09/05 02:25:58;;;;;;;66.40;39.03;;;17.50;99.90;;;;;;5026285;28;20181;-80
2021/09/05 02:28:24;;;;;;;64.85;39.90;;;17.40;99.90;;;;;;5026238;28;20193;-80
2021/09/05 02:30:49;;;;;;;65.18;40.40;;;17.40;99.90;;;;;;5026001;28;20166;-80
2021/09/05 02:33:15;;;;;;;67.55;40.15;;;17.40;99.90;;;;;;5026248;28;20193;-80
2021/09/05 02:35:41;;;;;;;68.82;40.00;;;17.30;99.90;;;;;;5025878;28;20166;-79
2021/09/05 02:38:06;;;;;;;65.88;40.35;;;17.30;99.90;;;;;;5027151;28;20264;-80
2021/09/05 02:40:32;;;;;;;67.35;40.40;;;17.30;99.90;;;;;;5025822;28;20289;-82
2021/09/05 02:42:57;;;;;;;71.05;41.03;;;17.30;99.90;;;;;;5027352;28;20173;-79
2021/09/05 02:45:23;;;;;;;77.93;39.72;;;17.30;99.90;;;;;;5025704;28;20240;-80
2021/09/05 02:47:49;;;;;;;67.47;41.15;;;17.30;99.90;;;;;;5025958;28;20185;-80
2021/09/05 02:50:15;;;;;;;73.90;40.70;;;17.30;99.90;;;;;;5032252;28;20174;-82
2021/09/05 02:52:41;;;;;;;74.63;41.85;;;17.30;99.90;;;;;;5025454;28;20165;-79
2021/09/05 02:55:08;;;;;;;74.05;40.90;;;17.30;99.90;;;;;;5025748;28;20190;-80
2021/09/05 02:57:34;;;;;;;67.88;41.17;;;17.30;99.90;;;;;;5025696;28;20201;-80
2021/09/05 03:00:00;;;;;;;69.78;41.35;;;17.30;99.90;;;;;;5027099;28;20556;-80
2021/09/05 03:02:25;;;;;;;72.85;40.92;;;17.30;99.90;;;;;;5026896;28;20273;-80
2021/09/05 03:04:51;;;;;;;72.32;40.65;;;17.30;99.90;;;;;;5026644;28;20165;-82
2021/09/05 03:07:16;;;;;;;70.55;39.55;;;17.30;99.90;;;;;;5026466;28;20166;-82
2021/09/05 03:09:42;;;;;;;67.47;40.40;;;17.30;99.90;;;;;;5025774;28;20162;-82
2021/09/05 03:12:08;;;;;;;71.78;40.22;;;17.20;99.90;;;;;;5026569;28;20208;-82
2021/09/05 03:14:33;;;;;;;66.03;39.88;;;17.20;99.90;;;;;;5025788;28;20507;-82
2021/09/05 03:16:59;;;;;;;68.57;40.72;;;17.10;99.90;;;;;;5026400;28;20166;-81
2021/09/05 03:19:25;;;;;;;65.88;40.13;;;17.10;99.90;;;;;;5026537;28;20162;-81
2021/09/05 03:21:50;;;;;;;66.57;40.63;;;17.20;99.90;;;;;;5026274;28;20174;-81
2021/09/05 03:24:16;;;;;;;69.57;40.38;;;17.20;99.90;;;;;;5026557;28;20185;-82
2021/09/05 03:26:41;;;;;;;64.78;41.15;;;17.20;99.90;;;;;;5026365;28;20166;-81
2021/09/05 03:29:07;;;;;;;70.90;41.10;;;17.20;99.90;;;;;;5026227;28;20213;-81
2021/09/05 03:31:33;;;;;;;67.93;40.67;;;17.30;99.90;;;;;;5024880;28;20312;-81
2021/09/05 03:33:59;;;;;;;81.97;42.55;;;17.40;99.90;;;;;;5025127;28;20158;-81
2021/09/05 03:36:24;;;;;;;71.05;40.85;;;17.50;99.90;;;;;;5024660;28;20197;-82
2021/09/05 03:38:50;;;;;;;67.90;41.50;;;17.40;99.90;;;;;;5024872;28;20165;-81
2021/09/05 03:41:16;;;;;;;70.85;40.72;;;17.30;99.90;;;;;;5025980;28;20173;-82
2021/09/05 03:43:42;;;;;;;75.70;41.30;;;17.30;99.90;;;;;;5026377;28;20637;-82
2021/09/05 03:46:08;;;;;;;71.60;42.22;;;17.40;99.90;;;;;;5024468;28;20218;-81
2021/09/05 03:48:33;;;;;;;73.07;40.67;;;17.40;99.90;;;;;;5026111;28;20205;-82
2021/09/05 03:51:00;;;;;;;70.20;40.63;;;17.30;99.90;;;;;;5025359;28;20166;-81
2021/09/05 03:53:26;;;;;;;73.50;42.47;;;17.30;99.90;;;;;;5024533;28;20170;-81
2021/09/05 03:55:52;;;;;;;69.43;40.88;;;17.30;99.90;;;;;;5026022;28;20172;-82
2021/09/05 03:58:18;;;;;;;71.15;41.30;;;17.20;99.90;;;;;;5024604;28;20236;-81
2021/09/05 04:00:44;;;;;;;72.20;40.88;;;17.10;99.90;;;;;;5025812;28;20166;-81
2021/09/05 04:03:10;;;;;;;73.03;40.13;;;17.10;99.90;;;;;;5025524;28;20253;-82
2021/09/05 04:05:35;;;;;;;72.78;40.40;;;17.00;99.90;;;;;;5025501;28;20277;-81
2021/09/05 04:10:30;;;;;;;70.50;39.85;;;16.90;99.90;;;;;;5025545;28;20205;-81
2021/09/05 04:12:55;;;;;;;69.28;41.17;;;16.90;99.90;;;;;;5025660;28;20154;-81
2021/09/05 04:15:21;;;;;;;71.07;40.38;;;17.00;99.90;;;;;;5024249;28;20512;-81
2021/09/05 04:17:47;;;;;;;70.93;40.17;;;17.00;99.90;;;;;;5024087;28;20169;-81
2021/09/05 04:20:12;;;;;;;74.63;40.03;;;17.00;99.90;;;;;;5024156;28;20182;-81
2021/09/05 04:22:38;;;;;;;80.47;42.42;;;17.00;99.90;;;;;;5023663;28;20273;-81
2021/09/05 04:25:05;;;;;;;70.63;40.15;;;16.90;99.90;;;;;;5024279;28;20635;-81
2021/09/05 04:27:31;;;;;;;76.10;39.67;;;16.80;99.90;;;;;;5025170;28;20166;-81
2021/09/05 04:29:57;;;;;;;71.20;38.45;;;16.80;99.90;;;;;;5020735;28;20213;-81
2021/09/05 04:32:23;;;;;;;61.85;36.58;;;16.70;99.90;;;;;;5021907;28;20177;-81
2021/09/05 04:34:49;;;;;;;61.75;36.72;;;16.70;99.90;;;;;;5025055;28;20189;-81
2021/09/05 04:37:16;;;;;;;60.67;36.35;;;16.60;99.90;;;;;;5023803;28;20616;-81
2021/09/05 04:39:42;;;;;;;65.55;37.15;;;16.60;99.90;;;;;;5025134;28;20420;-82
2021/09/05 04:42:07;;;;;;;70.03;37.53;;;16.50;99.90;;;;;;5024858;28;20169;-81
2021/09/05 04:44:33;;;;;;;72.13;39.90;;;16.50;99.90;;;;;;5025068;28;20169;-81
2021/09/05 04:46:59;;;;;;;68.80;38.42;;;16.60;99.90;;;;;;5025106;28;20245;-81
2021/09/05 04:49:24;;;;;;;69.68;39.67;;;16.60;99.90;;;;;;5023804;28;20201;-81
2021/09/05 04:51:50;;;;;;;63.97;37.55;;;16.60;99.90;;;;;;5023054;28;20205;-81
2021/09/05 04:54:16;;;;;;;74.78;39.50;;;16.50;99.90;;;;;;5023656;28;20172;-81
2021/09/05 04:56:41;;;;;;;75.28;39.40;;;16.50;99.90;;;;;;5024907;28;20171;-81
2021/09/05 04:59:07;;;;;;;64.68;36.28;;;16.50;99.90;;;;;;5023741;28;20184;-81
2021/09/05 05:01:33;;;;;;;64.85;37.42;;;16.60;99.90;;;;;;5023245;28;20170;-81
2021/09/05 05:03:58;;;;;;;67.60;36.88;;;16.60;99.90;;;;;;5024799;28;20161;-81
2021/09/05 05:06:24;;;;;;;61.72;36.03;;;16.60;99.90;;;;;;5024249;28;20534;-81
2021/09/05 05:08:51;;;;;;;66.75;38.40;;;16.70;99.90;;;;;;5024867;28;20209;-81
2021/09/05 05:11:16;;;;;;;65.25;38.80;;;16.60;99.90;;;;;;5023332;28;20697;-81
2021/09/05 05:13:45;;;;;;;67.10;37.25;;;16.70;99.90;;;;;;5023860;28;20170;-81
2021/09/05 05:16:11;;;;;;;64.90;37.33;;;16.70;99.90;;;;;;5023322;28;20169;-81
2021/09/05 05:18:37;;;;;;;67.00;37.78;;;16.70;99.90;;;;;;5024681;28;20170;-81
2021/09/05 05:21:02;;;;;;;62.33;38.05;;;16.90;99.90;;;;;;5024390;28;20635;-81
2021/09/05 05:23:29;;;;;;;70.32;38.80;;;17.10;99.90;;;;;;5023280;28;20643;-81
2021/09/05 05:25:57;;;;;;;62.88;36.88;;;17.10;99.90;;;;;;5007267;28;20158;-81
2021/09/05 05:28:23;;;;;;;69.75;37.35;;;17.10;99.90;;;;;;5024636;28;20245;-81
2021/09/05 05:30:49;;;;;;;59.88;36.17;;;17.10;99.90;;;;;;5024452;28;20170;-81
2021/09/05 05:33:15;;;;;;;67.95;37.95;;;17.10;99.90;;;;;;5023443;28;20190;-81
2021/09/05 05:35:40;;;;;;;59.97;37.80;;;17.10;99.90;;;;;;5024546;28;20166;-82
2021/09/05 05:38:06;;;;;;;61.10;36.50;;;17.40;99.90;;;;;;5025013;28;20198;-81
2021/09/05 05:40:33;;;;;;;66.25;38.25;;;17.30;99.90;;;;;;5026789;28;20234;-81
2021/09/05 05:43:00;;;;;;;63.55;36.72;;;17.30;99.90;;;;;;5024488;28;20167;-81
2021/09/05 05:45:26;;;;;;;65.53;36.53;;;17.40;99.90;;;;;;5026606;28;20228;-81
2021/09/05 05:47:52;;;;;;;65.70;36.65;;;17.50;99.90;;;;;;5028099;28;20198;-81
2021/09/05 05:50:17;;;;;;;59.05;35.50;;;17.30;99.90;;;;;;5027950;28;20170;-82
2021/09/05 05:52:43;;;;;;;63.42;35.70;;;17.20;99.90;;;;;;5026379;28;20177;-82
2021/09/05 05:55:09;;;;;;;58.78;34.90;;;17.20;99.90;;;;;;5027857;28;20162;-82
2021/09/05 05:57:35;;;;;;;60.53;36.47;;;17.10;99.90;;;;;;5027857;28;20170;-82
2021/09/05 06:00:00;;;;;;;61.50;35.92;;;17.00;99.90;;;;;;5026954;28;20170;-82
2021/09/05 06:02:26;;;;;;;64.50;37.65;;;17.30;99.90;;;;;;5027835;28;20162;-81
2021/09/05 06:04:51;;;;;;;59.38;35.75;;;17.40;99.90;;;;;;5027644;28;20174;-81
2021/09/05 06:07:17;;;;;;;62.75;36.58;;;17.40;99.90;;;;;;5026051;28;20162;-81
2021/09/05 06:09:43;;;;;;;57.97;35.58;;;17.40;99.90;;;;;;5026595;28;20236;-81
2021/09/05 06:12:09;;;;;;;59.20;35.40;;;17.30;99.90;;;;;;5027353;28;20193;-81
2021/09/05 06:14:36;;;;;;;58.40;35.03;;;17.40;99.90;;;;;;5027629;28;20170;-82
2021/09/05 06:17:02;;;;;;;57.25;35.78;;;17.50;99.90;;;;;;5027526;28;20178;-81
2021/09/05 06:19:28;;;;;;;66.60;39.83;;;17.60;99.90;;;;;;5025524;28;20461;-81
2021/09/05 06:21:53;;;;;;;53.83;35.42;;;18.00;99.90;;;;;;5025667;28;20580;-82
2021/09/05 06:24:19;;;;;;;56.47;36.08;;;17.90;99.90;;;;;;5027375;28;20202;-81
2021/09/05 06:26:44;;;;;;;55.80;34.90;;;17.80;99.90;;;;;;5026009;28;20394;-82
2021/09/05 06:29:10;;;;;;;56.03;35.63;;;18.00;99.90;;;;;;5027350;28;20205;-82
2021/09/05 06:31:36;;;;;;;57.35;34.83;;;18.20;99.90;;;;;;5027233;28;20185;-81
2021/09/05 06:34:02;;;;;;;49.42;33.38;;;18.20;99.90;;;;;;5027674;28;20158;-82
2021/09/05 06:36:28;;;;;;;56.10;35.10;;;18.30;99.90;;;;;;5025586;28;20173;-82
2021/09/05 06:38:53;;;;;;;50.25;34.42;;;18.40;99.90;;;;;;5026082;28;20161;-82
2021/09/05 06:41:19;;;;;;;51.28;34.40;;;18.50;99.90;;;;;;5025999;28;20245;-81
2021/09/05 06:43:45;;;;;;;56.28;34.08;;;18.60;99.90;;;;;;5027430;28;20173;-82
2021/09/05 06:46:10;;;;;;;55.88;35.78;;;18.70;99.90;;;;;;5044358;28;20686;-81
2021/09/05 06:48:36;;;;;;;59.25;36.88;;;18.70;99.90;;;;;;5024935;28;20204;-82
2021/09/05 06:51:01;;;;;;;55.80;34.88;;;18.60;99.90;;;;;;5026484;28;20173;-82
2021/09/05 06:53:27;;;;;;;51.80;34.00;;;18.50;99.90;;;;;;5026603;28;20174;-82
2021/09/05 06:55:53;;;;;;;60.45;35.40;;;18.40;99.90;;;;;;5026833;28;20226;-82
2021/09/05 06:58:18;;;;;;;53.20;33.67;;;18.30;99.90;;;;;;5025609;28;20170;-81
2021/09/05 07:00:44;;;;;;;57.08;36.13;;;18.40;99.90;;;;;;5026691;28;20253;-81
2021/09/05 07:03:10;;;;;;;55.63;32.58;;;18.50;99.90;;;;;;5026792;28;20212;-81
2021/09/05 07:05:35;;;;;;;52.22;34.88;;;18.50;99.90;;;;;;5026457;28;20175;-81
2021/09/05 07:08:01;;;;;;;52.22;34.72;;;18.60;99.90;;;;;;5025014;28;20205;-81
2021/09/05 07:10:27;;;;;;;56.10;33.33;;;18.60;99.90;;;;;;5026574;28;20222;-81
2021/09/05 07:12:52;;;;;;;57.10;35.65;;;18.90;99.90;;;;;;5026817;28;20166;-81
2021/09/05 07:15:18;;;;;;;57.38;35.80;;;18.80;99.90;;;;;;5025171;28;20177;-81
2021/09/05 07:17:44;;;;;;;58.17;36.80;;;18.70;99.90;;;;;;5026735;28;20154;-81
2021/09/05 07:20:11;;;;;;;57.15;35.90;;;18.80;99.90;;;;;;5025051;28;20661;-81
2021/09/05 07:22:37;;;;;;;58.20;35.05;;;18.70;99.90;;;;;;5025692;28;20166;-81
2021/09/05 07:25:03;;;;;;;60.15;35.10;;;18.70;99.90;;;;;;5026382;28;20201;-81
2021/09/05 07:27:29;;;;;;;59.13;36.40;;;18.70;99.90;;;;;;5026212;28;20162;-81
2021/09/05 07:29:55;;;;;;;57.08;35.53;;;18.80;99.90;;;;;;5026268;28;20162;-81
2021/09/05 07:32:21;;;;;;;59.97;37.45;;;18.80;99.90;;;;;;5022826;28;20184;-80
2021/09/05 07:34:47;;;;;;;54.25;34.83;;;18.90;99.90;;;;;;5024133;28;20249;-80
2021/09/05 07:37:14;;;;;;;53.22;35.60;;;19.00;99.90;;;;;;5024120;28;20173;-81
2021/09/05 07:39:41;;;;;;;55.55;36.03;;;19.10;99.90;;;;;;5027600;28;20167;-80
2021/09/05 07:42:06;;;;;;;57.00;36.15;;;19.20;99.90;;;;;;5025524;28;20185;-80
2021/09/05 07:44:32;;;;;;;58.42;37.00;;;19.30;99.90;;;;;;5024222;28;20388;-81
2021/09/05 07:47:01;;;;;;;58.55;35.90;;;19.30;99.90;;;;;;5024375;28;20162;-81
2021/09/05 07:49:28;;;;;;;62.88;37.58;;;19.30;99.90;;;;;;5024505;28;20619;-81
2021/09/05 07:51:53;;;;;;;59.78;35.92;;;19.50;99.90;;;;;;5023850;28;20261;-81
2021/09/05 07:54:19;;;;;;;62.20;37.13;;;19.60;99.90;;;;;;5025617;28;20158;-81
2021/09/05 07:56:45;;;;;;;56.53;37.25;;;19.60;99.90;;;;;;5025717;28;20229;-80
2021/09/05 07:59:11;;;;;;;60.63;35.85;;;19.70;99.90;;;;;;5024810;28;20166;-81
2021/09/05 08:01:36;;;;;;;59.92;36.05;;;19.80;99.90;;;;;;5024892;28;20162;-81
2021/09/05 08:04:02;;;;;;;57.13;36.45;;;19.90;99.90;;;;;;5025489;28;20177;-80
2021/09/05 08:06:27;;;;;;;60.55;38.03;;;20.00;99.90;;;;;;5024741;28;20181;-81
2021/09/05 08:08:55;;;;;;;57.53;37.10;;;19.80;99.90;;;;;;5025541;28;20177;-81
2021/09/05 08:11:21;;;;;;;69.38;38.15;;;19.90;99.90;;;;;;5024036;28;20205;-80
2021/09/05 08:13:47;;;;;;;55.80;36.03;;;20.00;99.90;;;;;;5025650;28;20162;-80
2021/09/05 08:16:12;;;;;;;58.53;36.10;;;20.10;99.90;;;;;;5024167;28;20162;-80
2021/09/05 08:18:38;;;;;;;62.38;37.33;;;20.20;99.90;;;;;;5025436;28;20170;-80
2021/09/05 08:21:08;;;;;;;57.85;35.35;;;20.30;99.90;;;;;;5023527;28;20197;-80
2021/09/05 08:23:35;;;;;;;62.03;36.35;;;20.40;99.90;;;;;;5023726;28;20564;-80
2021/09/05 08:26:02;;;;;;;53.17;33.92;;;20.50;99.90;;;;;;5024917;28;20166;-80
2021/09/05 08:28:28;;;;;;;62.38;37.75;;;20.60;99.90;;;;;;5025060;28;20264;-80
2021/09/05 08:30:54;;;;;;;56.97;36.72;;;20.50;99.90;;;;;;5024973;28;20163;-80
2021/09/05 08:33:20;;;;;;;58.05;35.85;;;20.40;99.90;;;;;;5024776;28;20231;-80
2021/09/05 08:35:46;;;;;;;59.72;36.45;;;20.50;99.90;;;;;;5024917;28;20209;-81
2021/09/05 08:38:13;;;;;;;57.28;35.03;;;20.60;99.90;;;;;;5024706;28;20638;-81
2021/09/05 08:40:44;;;;;;;65.50;38.35;;;20.60;99.90;;;;;;5027580;28;20224;-81
2021/09/05 08:43:11;;;;;;;58.60;35.92;;;20.90;99.90;;;;;;5023626;28;20166;-80
2021/09/05 08:45:39;;;;;;;53.50;33.50;;;21.00;99.90;;;;;;5025121;28;20221;-81
2021/09/05 08:48:05;;;;;;;62.88;36.85;;;21.00;99.90;;;;;;5023534;28;20639;-80
2021/09/05 08:50:32;;;;;;;56.75;33.40;;;21.20;99.90;;;;;;5024526;28;20174;-80
2021/09/05 08:52:59;;;;;;;56.95;34.35;;;21.30;99.90;;;;;;5024209;28;20174;-81
2021/09/05 08:55:25;;;;;;;59.45;32.53;;;21.40;99.90;;;;;;5033566;28;20161;-81
2021/09/05 08:57:50;;;;;;;52.58;31.00;;;21.50;99.90;;;;;;5022635;28;20245;-81
2021/09/05 09:00:16;;;;;;;53.60;32.97;;;21.60;99.90;;;;;;5023203;28;20166;-81
2021/09/05 09:02:50;;;;;;;57.17;32.60;;;21.70;99.90;;;;;;5024511;28;20188;-81
2021/09/05 09:05:39;;;;;;;57.45;33.15;;;21.80;99.90;;;;;;5023454;28;20163;-80
2021/09/05 09:08:10;;;;;;;54.38;31.52;;;22.00;99.90;;;;;;5022635;28;20208;-81
2021/09/05 09:11:11;;;;;;;55.47;33.17;;;22.00;99.90;;;;;;5023386;28;20170;-81
2021/09/05 09:13:39;;;;;;;54.45;31.05;;;22.20;99.90;;;;;;4986209;28;20211;-81
2021/09/05 09:16:08;;;;;;;47.08;29.52;;;22.30;99.90;;;;;;4987147;28;20223;-81
2021/09/05 09:18:35;;;;;;;50.65;28.70;;;22.50;99.90;;;;;;4987330;28;20178;-81
2021/09/05 09:21:04;;;;;;;45.60;28.83;;;22.70;99.90;;;;;;4987801;28;20176;-81
2021/09/05 09:23:32;;;;;;;45.47;28.42;;;22.90;99.90;;;;;;4970365;28;20210;-81
2021/09/05 09:26:15;;;;;;;49.53;31.20;;;23.10;99.90;;;;;;4987330;28;20242;-80
2021/09/05 09:28:45;;;;;;;50.13;30.20;;;23.20;99.90;;;;;;4986481;28;20203;-81
2021/09/05 09:31:19;;;;;;;44.53;28.73;;;23.20;99.90;;;;;;4987018;28;20172;-81
2021/09/05 09:33:52;;;;;;;53.50;30.55;;;23.10;99.90;;;;;;4986632;28;20216;-81
2021/09/05 09:36:22;;;;;;;53.47;29.40;;;23.10;99.90;;;;;;4970252;28;20175;-81
2021/09/05 09:38:55;;;;;;;47.22;29.63;;;23.10;99.90;;;;;;4976509;28;20174;-81
2021/09/05 09:41:21;;;;;;;44.47;29.35;;;23.20;99.90;;;;;;4986553;28;20207;-81
2021/09/05 09:43:55;;;;;;;42.92;27.45;;;22.70;99.90;;;;;;4986522;28;20190;-82
2021/09/05 09:46:24;;;;;;;39.28;26.55;;;22.90;99.90;;;;;;4969611;28;20320;-81
2021/09/05 09:48:52;;;;;;;49.95;30.73;;;23.10;99.90;;;;;;5002135;28;20216;-79
2021/09/05 09:51:18;;;;;;;53.65;30.73;;;23.00;99.90;;;;;;5027587;28;20166;-79
2021/09/05 09:53:45;;;;;;;46.00;31.92;;;23.00;99.90;;;;;;5026384;28;20174;-79
2021/09/05 09:56:16;;;;;;;46.67;28.92;;;22.80;99.90;;;;;;5027996;28;20154;-79
2021/09/05 09:58:43;;;;;;;40.83;26.00;;;23.00;99.90;;;;;;5026646;28;20185;-79
2021/09/05 10:01:10;;;;;;;47.90;29.67;;;23.30;99.90;;;;;;5026331;28;20657;-82
2021/09/05 10:03:37;;;;;;;52.15;29.90;;;23.60;99.90;;;;;;5025103;28;20170;-79
2021/09/05 10:06:03;;;;;;;42.75;26.83;;;23.60;99.90;;;;;;5027485;28;20180;-80
2021/09/05 10:08:35;;;;;;;45.35;27.05;;;23.80;99.90;;;;;;5025625;28;20202;-79
2021/09/05 10:11:01;;;;;;;49.17;27.48;;;24.00;99.90;;;;;;5026405;28;20197;-80
2021/09/05 10:13:33;;;;;;;42.17;27.35;;;24.20;99.90;;;;;;5026266;28;20162;-80
2021/09/05 10:16:00;;;;;;;46.17;27.42;;;24.40;99.90;;;;;;5025919;28;20193;-80
2021/09/05 10:18:27;;;;;;;41.00;25.98;;;24.50;99.90;;;;;;5025980;28;20162;-79
2021/09/05 10:20:58;;;;;;;37.70;25.48;;;24.70;99.90;;;;;;5026963;28;20182;-80
2021/09/05 10:23:29;;;;;;;38.20;25.58;;;24.80;99.90;;;;;;5025403;28;20182;-80
2021/09/05 10:25:56;;;;;;;45.50;27.88;;;24.90;99.90;;;;;;5025854;28;20202;-79
2021/09/05 10:28:36;;;;;;;38.70;26.75;;;25.00;99.90;;;;;;5026135;28;20186;-80
2021/09/05 10:31:02;;;;;;;39.80;26.00;;;25.00;99.90;;;;;;5026073;28;20165;-80
2021/09/05 10:33:33;;;;;;;37.00;24.25;;;24.70;99.90;;;;;;5027152;28;20227;-80
2021/09/05 10:36:26;;;;;;;35.63;24.30;;;24.40;99.90;;;;;;5027156;28;20170;-80
2021/09/05 10:39:06;;;;;;;33.92;22.63;;;24.70;99.90;;;;;;5025913;28;20265;-79
2021/09/05 10:41:32;;;;;;;30.95;22.30;;;24.90;99.90;;;;;;5025573;28;20180;-80
2021/09/05 10:44:01;;;;;;;37.92;23.85;;;25.20;99.90;;;;;;5027183;28;20261;-80
2021/09/05 10:46:29;;;;;;;34.17;23.50;;;25.50;99.90;;;;;;5026875;28;20224;-79
2021/09/05 10:48:59;;;;;;;31.90;21.00;;;25.20;99.90;;;;;;5027220;28;20186;-80
2021/09/05 10:51:34;;;;;;;30.85;20.45;;;25.10;99.90;;;;;;5025358;28;20280;-80
2021/09/05 10:53:59;;;;;;;28.02;19.73;;;25.30;99.90;;;;;;5025341;28;20505;-80
2021/09/05 10:56:29;;;;;;;33.45;24.02;;;25.40;99.90;;;;;;5026781;28;20177;-80
2021/09/05 10:58:56;;;;;;;33.55;19.05;;;25.50;99.90;;;;;;5027059;28;20166;-80
2021/09/05 11:01:30;;;;;;;30.98;19.95;;;25.70;99.90;;;;;;5026751;28;20168;-81
2021/09/05 11:07:06;;;;;;;24.92;18.50;;;26.00;99.90;;;;;;5026190;28;20502;-80
2021/09/05 11:09:31;;;;;;;25.85;19.80;;;26.10;99.90;;;;;;5025655;28;20194;-80
2021/09/05 11:12:25;;;;;;;27.83;17.88;;;26.20;99.90;;;;;;5026353;28;20222;-80
2021/09/05 11:14:51;;;;;;;30.00;20.33;;;26.40;99.90;;;;;;5026795;28;20147;-80
2021/09/05 11:17:28;;;;;;;24.33;18.40;;;26.30;99.90;;;;;;5025217;28;20162;-80
2021/09/05 11:20:02;;;;;;;29.13;20.15;;;26.40;99.90;;;;;;5025083;28;20240;-80
2021/09/05 11:22:39;;;;;;;24.73;18.73;;;26.50;99.90;;;;;;5024105;28;20169;-80
2021/09/05 11:25:28;;;;;;;26.10;18.38;;;26.50;99.90;;;;;;5014817;28;20204;-80
2021/09/05 11:28:08;;;;;;;26.00;18.05;;;26.50;99.90;;;;;;5025945;28;20252;-80
2021/09/05 11:30:39;;;;;;;25.83;17.08;;;26.50;99.90;;;;;;5024570;28;20209;-80
2021/09/05 11:33:07;;;;;;;29.52;17.80;;;26.50;99.90;;;;;;5024230;28;20166;-81
2021/09/05 11:35:40;;;;;;;26.23;16.20;;;26.40;99.90;;;;;;5025512;28;20170;-81
2021/09/05 11:38:07;;;;;;;25.45;18.05;;;26.50;99.90;;;;;;5024445;28;20228;-81
2021/09/05 11:40:58;;;;;;;27.10;16.35;;;26.50;99.90;;;;;;5027756;28;20162;-81
2021/09/05 11:43:40;;;;;;;22.98;16.75;;;26.80;99.90;;;;;;5024390;28;20177;-81
2021/09/05 11:46:10;;;;;;;24.08;16.90;;;26.80;99.90;;;;;;5025667;28;20260;-81
2021/09/05 11:48:36;;;;;;;20.40;15.45;;;27.10;99.90;;;;;;5025866;28;20201;-81
2021/09/05 11:51:02;;;;;;;25.88;16.63;;;27.10;99.90;;;;;;5024508;28;20170;-81
2021/09/05 11:53:28;;;;;;;22.38;15.98;;;27.00;99.90;;;;;;5025608;28;20687;-81
2021/09/05 11:55:54;;;;;;;20.85;14.10;;;27.00;99.90;;;;;;5024884;28;20177;-81
2021/09/05 11:58:21;;;;;;;16.27;12.90;;;27.00;99.90;;;;;;5025627;28;20169;-81
2021/09/05 12:00:54;;;;;;;18.20;12.95;;;27.10;99.90;;;;;;5025619;28;20162;-81
2021/09/05 12:03:29;;;;;;;13.35;11.20;;;27.10;99.90;;;;;;5024074;28;20165;-81
2021/09/05 12:05:55;;;;;;;17.40;11.85;;;27.30;99.90;;;;;;5025509;28;20172;-80
2021/09/05 12:08:21;;;;;;;17.48;11.65;;;27.50;99.90;;;;;;5025198;28;20268;-80
2021/09/05 12:10:58;;;;;;;12.82;9.85;;;27.50;99.90;;;;;;5024429;28;20311;-80
2021/09/05 12:13:24;;;;;;;14.02;10.57;;;27.50;99.90;;;;;;5024368;28;20233;-79
2021/09/05 12:15:50;;;;;;;15.43;11.98;;;27.70;99.90;;;;;;5024510;28;20166;-80
2021/09/05 12:18:27;;;;;;;12.70;10.23;;;27.60;99.90;;;;;;5024450;28;20174;-80
2021/09/05 12:20:55;;;;;;;9.73;8.40;;;27.70;99.90;;;;;;5025299;28;20249;-79
2021/09/05 12:23:33;;;;;;;10.10;8.30;;;28.00;99.90;;;;;;5023669;28;20240;-81
2021/09/05 12:26:01;;;;;;;18.40;9.68;;;28.20;99.90;;;;;;5024382;28;20614;-81
2021/09/05 12:28:32;;;;;;;14.57;10.60;;;28.30;99.90;;;;;;5023825;28;20204;-81
2021/09/05 12:31:05;;;;;;;15.48;11.50;;;28.30;99.90;;;;;;5023762;28;20253;-81
2021/09/05 12:33:38;;;;;;;12.30;9.60;;;28.30;99.90;;;;;;5023672;28;20165;-81